Tiempo atmosférico en la estación meteorológica de Nuñomoral, Cáceres (475 m.)



Fecha
DESCASC
Temp. máxima en grados centígrados (hora)
DESCASC
Temp. mínima en grados centígrados (hora)
DESCASC
Temp. media en grados centígrados
DESCASC
Racha de viento máxima en m/sg (hora)
DESCASC
Velocidad máxima media en intervalos de 10 minutos(hora)
DESCASC
Precipitaciones diarias en mm
DESCASC
Precipitaciones de 00:00 a 06:00 en mm
DESCASC
Precipitaciones de 06:00 a 12:00 en mm
DESCASC
Precipitaciones de 12:00 a 18:00 en mm
DESCASC
Precipitaciones de 18:00 a 24:00 en mm
DESCASC
19-05-2019 20.6 (19:20) 8.5 (07:30) 14.6 10 (18:50) 5.28 (14:20) 0 0 0 0 0
18-05-2019 18.2 (17:20) 7.8 (07:20) 13 11.67 (16:00) 6.11 (16:00) 0 0 0 0 0
17-05-2019 18.5 (16:50) 9.1 (07:00) 13.8 13.06 (19:00) 6.67 (15:00) 0 0 0 0 0
16-05-2019 26 (12:50) 12.2 (00:00) 19.1 15.28 (20:30) 7.22 (18:40) 0 0 0 0 0
15-05-2019 33 (16:00) 9.2 (00:00) 21.1 10.28 (17:20) 4.44 (13:00) 0 0 0 0 0
14-05-2019 31.1 (18:20) 5.4 (00:00) 18.3 7.5 (15:10) 4.17 (17:00) 0 0 0 0 0
13-05-2019 31.2 (16:30) 3.8 (00:00) 17.5 8.61 (16:40) 4.72 (15:50) 0 0 0 0 0
12-05-2019 29.6 (17:20) 6 (00:00) 17.8 6.39 (17:30) 3.33 (16:50) 0 0 0 0 0
11-05-2019 27.8 (18:10) 7.2 (00:00) 17.5 8.61 (16:20) 4.72 (08:30) 0 0 0 0 0
10-05-2019 23.3 (18:00) 14.5 (00:00) 18.9 8.89 (16:30) 4.17 (17:20) 2.6 0.2 2 0.4 0
09-05-2019 15.9 (20:30) 5 (00:00) 10.4 6.11 (11:40) 3.33 (11:10) 0.4 0 0 0 0.4
08-05-2019 21.4 (18:00) 11.2 (00:00) 16.3 12.22 (18:20) 6.39 (17:30) 3.2 2.4 0.8 0 0
07-05-2019 19.8 (15:20) 6.9 (00:00) 13.3 9.17 (15:00) 5 (15:00) 0 0 0 0 0
06-05-2019 23.7 (18:00) 6.1 (00:00) 14.9 7.5 (14:10) 4.72 (12:00) 0 0 0 0 0
05-05-2019 25.2 (17:50) 6.2 (00:00) 15.7 9.17 (15:20) 4.72 (16:20) 0 0 0 0 0
04-05-2019 24.9 (17:50) 3.2 (00:00) 14 10.56 (16:30) 5.56 (15:10) 0 0 0 0 0
03-05-2019 23.3 (16:40) 5.9 (00:00) 14.6 9.17 (15:20) 5 (15:30) 0 0 0 0 0
02-05-2019 26.7 (17:40) 8.1 (08:10) 17.4 7.5 (16:30) 3.33 (14:00) 0 0 0 0 0
01-05-2019 27.3 (18:00) 9.5 (00:00) 18.4 6.39 (17:40) 3.33 (18:40) 0 0 0 0 0
30-04-2019 27.9 (17:30) 9.2 (00:00) 18.5 7.22 (19:00) 3.89 (17:00) 0 0 0 0 0
29-04-2019 27 (16:10) 6.6 (00:00) 16.8 8.61 (18:30) 4.17 (15:00) 0 0 0 0 0
28-04-2019 26.1 (16:00) 5.3 (00:00) 15.7 6.67 (16:00) 3.61 (14:00) 0 0 0 0 0
27-04-2019 23.5 (19:10) 3.9 (00:00) 13.7 7.22 (16:20) 4.17 (17:40) 0 0 0 0 0
26-04-2019 16.9 (17:50) 5.3 (00:00) 11.1 10 (13:20) 5 (15:20) 0 0 0 0 0
25-04-2019 14.2 (19:20) 6.4 (00:00) 10.3 11.39 (17:30) 5.83 (17:30) 4.8 3.2 0.6 0.8 0.2
24-04-2019 13.2 (16:50) 5.1 (00:00) 9.1 11.39 (16:10) 5.56 (16:20) 52.6 4.8 27.2 9 11.6
23-04-2019 13.5 (00:20) 5.8 (00:00) 9.7 10.28 (19:00) 4.17 (16:10) 7.8 5.2 0.4 1.8 0.4

Gráficas

Temp. máximas Temp. mínimas Temp. medias Precipitaciones Rachas de viento máximas Velocidades máximas media en intervalos de 10 minutos

Datos horarios

Fecha y hora oficial Temperatura (ºC) Velocidad del viento (km/h) Dirección del viento Racha (km/h) Dirección de racha Precipitación (mm) Presión (hPa) Tendencia (hPa) Humedad (%)
2019-05-22 23:00:00 16.7 4 Noroeste 13 Norte 0 -- -- 54
2019-05-22 22:00:00 19.8 2 Noroeste 6 Norte 0 -- -- 46
2019-05-22 21:00:00 23.9 4 Norte 14 Oeste 0 -- -- 36
2019-05-22 20:00:00 27.3 9 Oeste 18 Oeste 0 -- -- 28
2019-05-22 19:00:00 28.1 6 Sudoeste 23 Sudoeste 0 -- -- 26
2019-05-22 18:00:00 27.8 9 Sudeste 20 Oeste 0 -- -- 24
2019-05-22 17:00:00 27.4 6 Sudoeste 24 Oeste 0 -- -- 29
2019-05-22 16:00:00 26.7 13 Oeste 26 Oeste 0 -- -- 31
2019-05-22 15:00:00 26.7 4 Nordeste 27 Sudoeste 0 -- -- 31
2019-05-22 14:00:00 26.2 9 Sudoeste 24 Oeste 0 -- -- 32
2019-05-22 13:00:00 25.8 7 Este 22 Este 0 -- -- 33
2019-05-22 12:00:00 23.4 10 Este 18 Este 0 -- -- 40
2019-05-22 11:00:00 20.9 3 Este 6 Este 0 -- -- 46
2019-05-22 10:00:00 17.6 3 Sudeste 6 Este 0 -- -- 57
2019-05-22 09:00:00 12.2 0 Calma 4 Nordeste 0 -- -- 78
2019-05-22 08:00:00 8.1 0 Calma 3 Norte 0 -- -- 87
2019-05-22 07:00:00 9 0 Calma 7 Norte 0 -- -- 82
2019-05-22 06:00:00 10.1 4 Norte 8 Norte 0 -- -- 79
2019-05-22 05:00:00 11.9 3 Norte 12 Oeste 0 -- -- 72
2019-05-22 04:00:00 14.2 7 Oeste 14 Sudoeste 0 -- -- 67
2019-05-22 03:00:00 11.5 8 Norte 12 Norte 0 -- -- 66
2019-05-22 02:00:00 11.9 5 Norte 9 Nordeste 0 -- -- 64
2019-05-22 01:00:00 13.2 4 Noroeste 9 Oeste 0 -- -- 60
2019-05-22 00:00:00 14.5 4 Noroeste 8 Norte 0 -- -- 57
2019-05-21 23:00:00 16.9 4 Norte 7 Norte 0 -- -- 51
2019-05-21 22:00:00 20.5 3 Oeste 12 Oeste 0 -- -- 46
2019-05-21 21:00:00 22.3 5 Oeste 14 Oeste 0 -- -- 43
2019-05-21 20:00:00 22.8 10 Oeste 14 Oeste 0 -- -- 40
2019-05-21 19:00:00 23.7 2 Sur 13 Oeste 0 -- -- 41
2019-05-21 18:00:00 26.1 4 Sur 17 Este 0 -- -- 30
2019-05-21 17:00:00 24.2 4 Este 12 Sudeste 0 -- -- 35
2019-05-21 16:00:00 24 7 Sudeste 14 Sudeste 0 -- -- 35
2019-05-21 15:00:00 24.4 5 Sudeste 22 Este 0 -- -- 33
2019-05-21 14:00:00 23.9 7 Este 19 Este 0 -- -- 35
2019-05-21 13:00:00 22.8 5 Este 18 Sudeste 0 -- -- 38
2019-05-21 12:00:00 20.9 5 Sur 13 Sudoeste 0 -- -- 43
2019-05-21 11:00:00 18.6 4 Sudoeste 11 Sur 0 -- -- 49
2019-05-21 10:00:00 16.7 4 Este 10 Este 0 -- -- 57
2019-05-21 09:00:00 12.1 3 Nordeste 8 Norte 0 -- -- 75
2019-05-21 08:00:00 9.2 5 Norte 13 Oeste 0 -- -- 80
2019-05-21 07:00:00 10.3 7 Oeste 14 Oeste 0 -- -- 76
2019-05-21 06:00:00 11.6 9 Oeste 15 Sur 0 -- -- 71
2019-05-21 05:00:00 11.9 5 Noroeste 16 Oeste 0 -- -- 69
2019-05-21 04:00:00 12.9 6 Oeste 21 Sudoeste 0 -- -- 65
2019-05-21 03:00:00 13.2 8 Oeste 18 Sudoeste 0 -- -- 64
2019-05-21 02:00:00 13 4 Oeste 13 Norte 0 -- -- 60
2019-05-21 01:00:00 11.9 4 Oeste 10 Oeste 0 -- -- 59
2019-05-21 00:00:00 13.6 6 Oeste 11 Sudoeste 0 -- -- 55
2019-05-20 23:00:00 15.7 4 Oeste 8 Noroeste 0 -- -- 50
2019-05-20 22:00:00 17.9 5 Oeste 18 Noroeste 0 -- -- 41
2019-05-20 21:00:00 18.7 7 Oeste 36 Noroeste 0 -- -- 39
2019-05-20 20:00:00 20.4 11 Oeste 23 Sudoeste 0 -- -- 33
2019-05-20 19:00:00 21.1 6 Noroeste 22 Oeste 0 -- -- 33
2019-05-20 18:00:00 21.8 13 Oeste 27 Oeste 0 -- -- 31
2019-05-20 17:00:00 23.1 6 Nordeste 24 Oeste 0 -- -- 29
2019-05-20 16:00:00 21.8 7 Noroeste 20 Oeste 0 -- -- 35
2019-05-20 15:00:00 20.6 8 Oeste 21 Sudoeste 0 -- -- 37
2019-05-20 14:00:00 20.2 7 Sur 20 Este 0 -- -- 38
2019-05-20 13:00:00 20.2 8 Sudeste 22 Este 0 -- -- 38
2019-05-20 12:00:00 17.6 6 Sudoeste 26 Oeste 0 -- -- 40
2019-05-20 11:00:00 16.6 12 Oeste 22 Oeste 0 -- -- 43
2019-05-20 10:00:00 14.1 5 Sudoeste 14 Sudoeste 0 -- -- 52
2019-05-20 09:00:00 9.7 0 Calma 4 Norte 0 -- -- 75
2019-05-20 08:00:00 7.9 0 Calma 6 Norte 0 -- -- 82
2019-05-20 07:00:00 7.6 3 Noroeste 11 Norte 0 -- -- 78
2019-05-20 06:00:00 8 5 Noroeste 10 Noroeste 0 -- -- 75
2019-05-20 05:00:00 9.2 7 Oeste 15 Sudoeste 0 -- -- 69
2019-05-20 04:00:00 8 5 Noroeste 12 Norte 0 -- -- 73
2019-05-20 03:00:00 8.9 5 Noroeste 13 Sudoeste 0 -- -- 69
2019-05-20 02:00:00 9.2 3 Oeste 9 Oeste 0 -- -- 66
2019-05-20 01:00:00 8.8 3 Noroeste 6 Noroeste 0 -- -- 63
2019-05-20 00:00:00 9.7 0 Calma 5 Norte 0 -- -- 61
2019-05-19 23:00:00 11.5 2 Norte 10 Noroeste 0 -- -- 50
2019-05-19 22:00:00 14 2 Noroeste 8 Noroeste 0 -- -- 44
2019-05-19 21:00:00 17.7 3 Noroeste 21 Sudoeste 0 -- -- 35
2019-05-19 20:00:00 20.2 8 Oeste 32 Sudoeste 0 -- -- 26
2019-05-19 19:00:00 20.3 13 Oeste 36 Oeste 0 -- -- 25
2019-05-19 18:00:00 20.2 18 Oeste 33 Oeste 0 -- -- 21
2019-05-19 17:00:00 20.3 16 Oeste 33 Sudoeste 0 -- -- 22
2019-05-19 16:00:00 19.9 15 Oeste 32 Oeste 0 -- -- 27
2019-05-19 15:00:00 18.9 10 Oeste 31 Oeste 0 -- -- 28
2019-05-19 14:00:00 17.9 15 Oeste 33 Oeste 0 -- -- 32
2019-05-19 13:00:00 16.9 13 Oeste 29 Sudoeste 0 -- -- 34
2019-05-19 12:00:00 15.7 10 Oeste 25 Oeste 0 -- -- 40
2019-05-19 11:00:00 13.6 7 Sudoeste 19 Sudoeste 0 -- -- 51
2019-05-19 10:00:00 11.6 10 Oeste 23 Sudoeste 0 -- -- 60
2019-05-19 09:00:00 10.2 11 Oeste 26 Sudoeste 0 -- -- 66
2019-05-19 08:00:00 8.9 11 Oeste 24 Oeste 0 -- -- 71
2019-05-19 07:00:00 9 12 Oeste 26 Oeste 0 -- -- 70
2019-05-19 06:00:00 9.4 9 Oeste 21 Sudoeste 0 -- -- 68
2019-05-19 05:00:00 9.5 6 Oeste 14 Oeste 0 -- -- 69
2019-05-19 04:00:00 9.7 6 Oeste 21 Sudoeste 0 -- -- 67
2019-05-19 03:00:00 10.6 5 Oeste 21 Sudoeste 0 -- -- 64
2019-05-19 02:00:00 11.2 10 Oeste 24 Sudoeste 0 -- -- 60
2019-05-19 01:00:00 11.5 7 Oeste 15 Oeste 0 -- -- 57
2019-05-19 00:00:00 12 5 Noroeste 16 Norte 0 -- -- 53
2019-05-18 23:00:00 10.1 4 Noroeste 9 Noroeste 0 -- -- 56
2019-05-18 22:00:00 12.3 3 Norte 14 Sudoeste 0 -- -- 50
2019-05-18 21:00:00 15.2 10 Oeste 28 Sudoeste 0 -- -- 37
2019-05-18 20:00:00 17.2 10 Oeste 26 Oeste 0 -- -- 33
2019-05-18 19:00:00 17 13 Oeste 27 Sudoeste 0 -- -- 34
2019-05-18 18:00:00 17.4 9 Noroeste 34 Oeste 0 -- -- 34
2019-05-18 17:00:00 18 15 Oeste 35 Oeste 0 -- -- 31
2019-05-18 16:00:00 17.4 22 Oeste 42 Sudoeste 0 -- -- 32
2019-05-18 15:00:00 16.8 17 Oeste 36 Oeste 0 -- -- 32
2019-05-18 14:00:00 15.7 17 Oeste 29 Oeste 0 -- -- 36
2019-05-18 13:00:00 15.2 14 Oeste 30 Oeste 0 -- -- 40
2019-05-18 12:00:00 14.4 7 Norte 26 Norte 0 -- -- 43
2019-05-18 11:00:00 11.6 19 Oeste 33 Sudoeste 0 -- -- 53
2019-05-18 10:00:00 10.2 16 Oeste 37 Oeste 0 -- -- 57
2019-05-18 09:00:00 9.3 9 Oeste 30 Oeste 0 -- -- 62
2019-05-18 08:00:00 8 12 Sudoeste 29 Sudoeste 0 -- -- 68
2019-05-18 07:00:00 8 10 Oeste 31 Oeste 0 -- -- 69
2019-05-18 06:00:00 8.7 11 Oeste 27 Oeste 0 -- -- 65
2019-05-18 05:00:00 9.1 10 Oeste 28 Oeste 0 -- -- 65
2019-05-18 04:00:00 9.7 10 Sudoeste 24 Oeste 0 -- -- 62
2019-05-18 03:00:00 10.3 8 Sudoeste 27 Sudoeste 0 -- -- 62
2019-05-18 02:00:00 11.1 6 Sudoeste 18 Nordeste 0 -- -- 58
2019-05-18 01:00:00 11.6 6 Sudeste 25 Norte 0 -- -- 56
2019-05-18 00:00:00 12.1 5 Noroeste 16 Sur 0 -- -- 55
2019-05-17 23:00:00 13 14 Oeste 31 Oeste 0 -- -- 55
2019-05-17 22:00:00 13.8 10 Noroeste 24 Oeste 0 -- -- 53
2019-05-17 21:00:00 15.2 6 Noroeste 24 Norte 0 -- -- 49
2019-05-17 20:00:00 17 8 Noroeste 43 Sudoeste 0 -- -- 41
2019-05-17 19:00:00 17.4 18 Oeste 47 Oeste 0 -- -- 38
2019-05-17 18:00:00 18 20 Oeste 45 Sudoeste 0 -- -- 34
2019-05-17 17:00:00 18.3 16 Oeste 40 Sudoeste 0 -- -- 31
2019-05-17 16:00:00 16.6 21 Oeste 41 Sudoeste 0 -- -- 36
2019-05-17 15:00:00 16.5 24 Oeste 45 Sudoeste 0 -- -- 39
2019-05-17 14:00:00 14.4 18 Oeste 47 Oeste 0 -- -- 47
2019-05-17 13:00:00 13 19 Sudoeste 42 Oeste 0 -- -- 53
2019-05-17 12:00:00 11.8 19 Sudoeste 37 Oeste 0 -- -- 57
2019-05-17 11:00:00 11.5 9 Oeste 28 Oeste 0 -- -- 60
2019-05-17 10:00:00 10.9 7 Noroeste 25 Sudoeste 0 -- -- 61
2019-05-17 09:00:00 10.1 10 Oeste 30 Sudoeste 0 -- -- 62
2019-05-17 08:00:00 9.4 8 Sudoeste 26 Sudoeste 0 -- -- 65
2019-05-17 07:00:00 9.1 10 Oeste 37 Oeste 0 -- -- 66
2019-05-17 06:00:00 9.3 6 Noroeste 28 Sudoeste 0 -- -- 67
2019-05-17 05:00:00 9.5 7 Oeste 20 Oeste 0 -- -- 66
2019-05-17 04:00:00 10.1 9 Oeste 32 Sudoeste 0 -- -- 65
2019-05-17 03:00:00 10.5 15 Oeste 35 Oeste 0 -- -- 64
2019-05-17 02:00:00 11.1 10 Oeste 27 Sur 0 -- -- 62
2019-05-17 01:00:00 12.1 17 Oeste 42 Sudoeste 0 -- -- 61
2019-05-17 00:00:00 12.9 13 Oeste 34 Noroeste 0 -- -- 61
2019-05-16 23:00:00 13.5 10 Oeste 48 Oeste 0 -- -- 57
2019-05-16 22:00:00 15 17 Oeste 54 Oeste 0 -- -- 55
2019-05-16 21:00:00 16.2 23 Sudoeste 55 Sudoeste 0 -- -- 49
2019-05-16 20:00:00 18.5 15 Oeste 45 Oeste 0 -- -- 47
2019-05-16 19:00:00 21.5 22 Oeste 49 Sudoeste 0 -- -- 42
2019-05-16 18:00:00 22.7 14 Oeste 41 Sudoeste 0 -- -- 34
2019-05-16 17:00:00 23.6 17 Oeste 41 Noroeste 0 -- -- 37
2019-05-16 16:00:00 23.5 15 Noroeste 42 Noroeste 0 -- -- 41
2019-05-16 15:00:00 24.8 23 Noroeste 37 Noroeste 0 -- -- 35
2019-05-16 14:00:00 25.7 20 Oeste 40 Oeste 0 -- -- 30
2019-05-16 13:00:00 26 13 Noroeste 28 Noroeste 0 -- -- 28
2019-05-16 12:00:00 23.5 15 Noroeste 33 Noroeste 0 -- -- 32
2019-05-16 11:00:00 22.4 16 Noroeste 29 Noroeste 0 -- -- 34
2019-05-16 10:00:00 21.2 12 Sudoeste 24 Oeste 0 -- -- 39
2019-05-16 09:00:00 18.8 12 Sudoeste 25 Sudoeste 0 -- -- 46
2019-05-16 08:00:00 12.3 4 Norte 10 Norte 0 -- -- 75
2019-05-16 07:00:00 12.6 5 Norte 9 Norte 0 -- -- 72
2019-05-16 06:00:00 14.8 6 Oeste 13 Oeste 0 -- -- 63
2019-05-16 05:00:00 16.7 5 Oeste 19 Sudoeste 0 -- -- 56
2019-05-16 04:00:00 17.4 9 Oeste 19 Sudoeste 0 -- -- 56
2019-05-16 03:00:00 19.2 10 Oeste 18 Oeste 0 -- -- 50
2019-05-16 02:00:00 20.7 9 Noroeste 20 Norte 0 -- -- 45
2019-05-16 01:00:00 21.8 8 Sudoeste 17 Oeste 0 -- -- 43
2019-05-16 00:00:00 23.2 4 Oeste 19 Sudoeste 0 -- -- 39
2019-05-15 23:00:00 23.6 10 Oeste 19 Noroeste 0 -- -- 42
2019-05-15 22:00:00 24 10 Oeste 22 Oeste 0 -- -- 38
2019-05-15 21:00:00 26.5 8 Oeste 14 Sudoeste 0 -- -- 32
2019-05-15 20:00:00 31.5 4 Oeste 21 Oeste 0 -- -- 24
2019-05-15 19:00:00 32 10 Oeste 26 Sudoeste 0 -- -- 18
2019-05-15 18:00:00 31.7 12 Oeste 37 Oeste 0 -- -- 22
2019-05-15 17:00:00 31.6 16 Sudoeste 32 Oeste 0 -- -- 22
2019-05-15 16:00:00 33 10 Noroeste 22 Noroeste 0 -- -- 20
2019-05-15 15:00:00 31.7 9 Oeste 27 Sudoeste 0 -- -- 20
2019-05-15 14:00:00 30.6 11 Oeste 28 Oeste 0 -- -- 29
2019-05-15 13:00:00 29 16 Oeste 27 Oeste 0 -- -- 33
2019-05-15 12:00:00 27 8 Este 15 Este 0 -- -- 44
2019-05-15 11:00:00 23.9 10 Este 15 Este 0 -- -- 48
2019-05-15 10:00:00 19.7 5 Este 9 Este 0 -- -- 57
2019-05-15 09:00:00 13.2 0 Calma 5 Este 0 -- -- 81
2019-05-15 08:00:00 9.2 0 Calma 5 Norte 0 -- -- 88
2019-05-15 07:00:00 9.8 0 Calma 7 Este 0 -- -- 83
2019-05-15 06:00:00 11.9 2 Norte 10 Noroeste 0 -- -- 75
2019-05-15 05:00:00 14 5 Oeste 13 Noroeste 0 -- -- 66
2019-05-15 04:00:00 13.7 5 Noroeste 11 Sudoeste 0 -- -- 64
2019-05-15 03:00:00 12.2 5 Noroeste 11 Norte 0 -- -- 63
2019-05-15 02:00:00 12 5 Norte 9 Norte 0 -- -- 66
2019-05-15 01:00:00 12.9 3 Norte 9 Norte 0 -- -- 69
2019-05-15 00:00:00 15.4 5 Noroeste 11 Noroeste 0 -- -- 55
2019-05-14 23:00:00 16.9 4 Noroeste 9 Noroeste 0 -- -- 52
2019-05-14 22:00:00 19.3 3 Noroeste 8 Noroeste 0 -- -- 48
2019-05-14 21:00:00 24.2 3 Norte 9 Oeste 0 -- -- 38
2019-05-14 20:00:00 30.5 6 Oeste 23 Sudoeste 0 -- -- 28
2019-05-14 19:00:00 31 11 Oeste 27 Oeste 0 -- -- 21
2019-05-14 18:00:00 30.9 5 Norte 24 Este 0 -- -- 25
2019-05-14 17:00:00 29.5 15 Este 24 Este 0 -- -- 30
2019-05-14 16:00:00 28.9 14 Este 27 Este 0 -- -- 30
2019-05-14 15:00:00 29 8 Sudeste 23 Sudeste 0 -- -- 29
2019-05-14 14:00:00 27 10 Este 18 Este 0 -- -- 33
2019-05-14 13:00:00 25.1 11 Este 17 Este 0 -- -- 31
2019-05-14 12:00:00 23.1 4 Este 13 Sudeste 0 -- -- 34
2019-05-14 11:00:00 19.6 8 Este 15 Este 0 -- -- 37
2019-05-14 10:00:00 16.1 4 Este 8 Este 0 -- -- 47
2019-05-14 09:00:00 9.9 3 Norte 6 Norte 0 -- -- 72
2019-05-14 08:00:00 5.5 0 Calma 5 Noroeste 0 -- -- 83
2019-05-14 07:00:00 5.8 0 Calma 6 Noroeste 0 -- -- 83
2019-05-14 06:00:00 6.4 2 Norte 6 Norte 0 -- -- 80
2019-05-14 05:00:00 8 3 Noroeste 7 Norte 0 -- -- 72
2019-05-14 04:00:00 8.2 4 Este 8 Este 0 -- -- 73
2019-05-14 03:00:00 9.8 4 Noroeste 8 Noroeste 0 -- -- 63
2019-05-14 02:00:00 10.9 2 Noroeste 7 Noroeste 0 -- -- 61
2019-05-14 01:00:00 11.5 2 Noroeste 8 Norte 0 -- -- 63
2019-05-14 00:00:00 13.3 4 Noroeste 8 Noroeste 0 -- -- 55
2019-05-13 23:00:00 15.4 3 Noroeste 7 Norte 0 -- -- 48
2019-05-13 22:00:00 18.8 3 Norte 7 Norte 0 -- -- 42
2019-05-13 21:00:00 24.5 4 Noroeste 8 Noroeste 0 -- -- 31
2019-05-13 20:00:00 30.4 4 Norte 18 Nordeste 0 -- -- 20
2019-05-13 19:00:00 30.8 6 Este 22 Noroeste 0 -- -- 17
2019-05-13 18:00:00 30.6 13 Este 27 Este 0 -- -- 16
2019-05-13 17:00:00 30.6 12 Este 31 Este 0 -- -- 18
2019-05-13 16:00:00 30.9 15 Sudeste 29 Sur 0 -- -- 19
2019-05-13 15:00:00 30 10 Sudeste 20 Este 0 -- -- 24
2019-05-13 14:00:00 28.6 7 Sudeste 17 Este 0 -- -- 19
2019-05-13 13:00:00 26.9 4 Sudeste 16 Sudeste 0 -- -- 23
2019-05-13 12:00:00 23.8 9 Este 14 Este 0 -- -- 31
2019-05-13 11:00:00 19.9 5 Este 10 Este 0 -- -- 41
2019-05-13 10:00:00 15.2 3 Este 8 Sudeste 0 -- -- 48
2019-05-13 09:00:00 8.3 0 Calma 6 Norte 0 -- -- 74
2019-05-13 08:00:00 4.1 3 Norte 7 Norte 0 -- -- 84
2019-05-13 07:00:00 3.9 0 Calma 6 Norte 0 -- -- 83
2019-05-13 06:00:00 4.5 0 Calma 5 Norte 0 -- -- 82
2019-05-13 05:00:00 5.5 2 Norte 6 Norte 0 -- -- 78
2019-05-13 04:00:00 6.5 2 Norte 5 Norte 0 -- -- 74
2019-05-13 03:00:00 7.8 2 Noroeste 6 Norte 0 -- -- 70
2019-05-13 02:00:00 8.5 2 Norte 6 Norte 0 -- -- 68
2019-05-13 01:00:00 10.1 3 Norte 9 Nordeste 0 -- -- 60
2019-05-13 00:00:00 11.9 3 Noroeste 9 Noroeste 0 -- -- 52
2019-05-12 23:00:00 14.8 4 Noroeste 13 Oeste 0 -- -- 45
2019-05-12 22:00:00 17.9 5 Oeste 9 Oeste 0 -- -- 39
2019-05-12 21:00:00 23.1 2 Noroeste 15 Este 0 -- -- 33
2019-05-12 20:00:00 27.7 12 Este 21 Sudeste 0 -- -- 17
2019-05-12 19:00:00 29 9 Sudeste 21 Sudeste 0 -- -- 18
2019-05-12 18:00:00 29.3 9 Sudeste 23 Sudeste 0 -- -- 17
2019-05-12 17:00:00 29.2 10 Sudeste 22 Este 0 -- -- 19
2019-05-12 16:00:00 28.6 6 Sudeste 19 Sudeste 0 -- -- 24
2019-05-12 15:00:00 27.3 9 Este 19 Este 0 -- -- 25
2019-05-12 14:00:00 26.4 9 Sudeste 20 Este 0 -- -- 22
2019-05-12 13:00:00 25.2 9 Sudeste 23 Sudeste 0 -- -- 25
2019-05-12 12:00:00 23.4 11 Este 17 Sudeste 0 -- -- 26
2019-05-12 11:00:00 20.7 3 Este 14 Este 0 -- -- 44
2019-05-12 10:00:00 16.6 5 Este 8 Este 0 -- -- 55
2019-05-12 09:00:00 9.9 2 Noroeste 9 Oeste 0 -- -- 74
2019-05-12 08:00:00 6.1 3 Noroeste 6 Nordeste 0 -- -- 88
2019-05-12 07:00:00 6.9 2 Este 13 Norte 0 -- -- 82
2019-05-12 06:00:00 8.6 6 Noroeste 13 Oeste 0 -- -- 73
2019-05-12 05:00:00 9 4 Oeste 12 Sudoeste 0 -- -- 73
2019-05-12 04:00:00 10.1 7 Noroeste 13 Norte 0 -- -- 67
2019-05-12 03:00:00 10.8 8 Noroeste 14 Oeste 0 -- -- 66
2019-05-12 02:00:00 10.5 5 Noroeste 8 Norte 0 -- -- 70
2019-05-12 01:00:00 11.5 3 Noroeste 11 Norte 0 -- -- 65
2019-05-12 00:00:00 12.2 2 Nordeste 8 Noroeste 0 -- -- 66
2019-05-11 23:00:00 15 8 Noroeste 11 Noroeste 0 -- -- 56
2019-05-11 22:00:00 17.9 4 Noroeste 9 Oeste 0 -- -- 50
2019-05-11 21:00:00 22.7 3 Norte 16 Este 0 -- -- 39
2019-05-11 20:00:00 25.7 10 Este 23 Este 0 -- -- 25
2019-05-11 19:00:00 26.8 12 Este 21 Este 0 -- -- 25
2019-05-11 18:00:00 27.7 6 Noroeste 23 Este 0 -- -- 22
2019-05-11 17:00:00 27.3 10 Este 31 Sudeste 0 -- -- 25
2019-05-11 16:00:00 26.8 10 Sudeste 23 Sudeste 0 -- -- 27
2019-05-11 15:00:00 26.1 8 Sur 19 Este 0 -- -- 30
2019-05-11 14:00:00 24.6 4 Nordeste 20 Oeste 0 -- -- 32
2019-05-11 13:00:00 22.6 9 Oeste 27 Oeste 0 -- -- 37
2019-05-11 12:00:00 20.1 14 Oeste 29 Oeste 0 -- -- 48
2019-05-11 11:00:00 18.8 5 Este 8 Este 0 -- -- 54
2019-05-11 10:00:00 15.4 3 Sudoeste 21 Sudoeste 0 -- -- 67
2019-05-11 09:00:00 13.1 12 Sudoeste 28 Sudoeste 0 -- -- 76
2019-05-11 08:00:00 9.8 8 Sudoeste 18 Sudoeste 0 -- -- 97
2019-05-11 07:00:00 7.3 3 Norte 7 Norte 0 -- -- 93
2019-05-11 06:00:00 8 3 Norte 6 Norte 0 -- -- 92
2019-05-11 05:00:00 9 3 Norte 8 Norte 0 -- -- 91
2019-05-11 04:00:00 10.2 5 Norte 14 Oeste 0 -- -- 86
2019-05-11 03:00:00 13.5 7 Oeste 24 Sudoeste 0 -- -- 75
2019-05-11 02:00:00 12.3 5 Noroeste 14 Oeste 0 -- -- 78
2019-05-11 01:00:00 13.5 6 Oeste 16 Sudoeste 0 -- -- 73
2019-05-11 00:00:00 16.3 7 Oeste 22 Oeste 0 -- -- 61
2019-05-10 23:00:00 17.5 13 Oeste 25 Oeste 0 -- -- 51
2019-05-10 22:00:00 17.4 2 Noroeste 10 Norte 0 -- -- 72
2019-05-10 21:00:00 20.2 6 Noroeste 17 Oeste 0 -- -- 61
2019-05-10 20:00:00 22.4 9 Oeste 19 Oeste 0 -- -- 53
2019-05-10 19:00:00 22.5 10 Oeste 26 Oeste 0 -- -- 53
2019-05-10 18:00:00 23.3 10 Oeste 27 Oeste 0 -- -- 51
2019-05-10 17:00:00 23 9 Oeste 32 Oeste 0 -- -- 52
2019-05-10 16:00:00 22.3 10 Sudoeste 27 Oeste 0 -- -- 53
2019-05-10 15:00:00 20.8 8 Sur 22 Sudoeste 0 -- -- 63
2019-05-10 14:00:00 20.3 8 Oeste 21 Sudoeste 0.2 -- -- 69
2019-05-10 13:00:00 17.8 6 Noroeste 17 Sudoeste 0.2 -- -- 87
2019-05-10 12:00:00 16.7 5 Este 12 Nordeste 0.4 -- -- 94
2019-05-10 11:00:00 16.3 6 Este 12 Este 0 -- -- 92
2019-05-10 10:00:00 15.8 0 Calma 8 Sudeste 0.4 -- -- 96
2019-05-10 09:00:00 15.1 0 Calma 7 Norte 0.2 -- -- 96
2019-05-10 08:00:00 14.7 0 Calma 4 Sur 0.4 -- -- 96
2019-05-10 07:00:00 14.8 0 Calma 5 Nordeste 0.6 -- -- 96
2019-05-10 06:00:00 14.9 0 Calma 8 Norte 0.2 -- -- 95
2019-05-10 05:00:00 14.9 2 Noroeste 9 Este 0 -- -- 95
2019-05-10 04:00:00 14.5 2 Noroeste 8 Norte 0 -- -- 95
2019-05-10 03:00:00 14.6 4 Este 7 Nordeste 0 -- -- 95
2019-05-10 02:00:00 15 0 Calma 5 Norte 0 -- -- 95
2019-05-10 01:00:00 15.1 3 Norte 5 Nordeste 0 -- -- 95
2019-05-10 00:00:00 15.3 2 Norte 4 Oeste 0.4 -- -- 94
2019-05-09 23:00:00 15.4 0 Calma 4 Nordeste 0 -- -- 93
2019-05-09 22:00:00 15.5 3 Norte 7 Norte 0 -- -- 91
2019-05-09 21:00:00 15.9 0 Calma 6 Norte 0 -- -- 90
2019-05-09 20:00:00 15.7 3 Nordeste 14 Este 0 -- -- 91
2019-05-09 19:00:00 15.5 6 Este 13 Sudeste 0 -- -- 89
2019-05-09 18:00:00 15.2 8 Este 14 Este 0 -- -- 86
2019-05-09 17:00:00 15.5 8 Este 15 Sudeste 0 -- -- 82
2019-05-09 16:00:00 14.9 9 Sudeste 15 Sudeste 0 -- -- 78
2019-05-09 15:00:00 15 6 Este 18 Sudeste 0 -- -- 71
2019-05-09 14:00:00 15.6 6 Sur 17 Este 0 -- -- 67
2019-05-09 13:00:00 14.4 2 Oeste 21 Sudoeste 0 -- -- 64
2019-05-09 12:00:00 14.6 5 Este 22 Este 0 -- -- 58
2019-05-09 11:00:00 14.4 10 Este 17 Este 0 -- -- 63
2019-05-09 10:00:00 11.9 2 Este 5 Sudeste 0 -- -- 70
2019-05-09 09:00:00 7.8 2 Nordeste 5 Norte 0 -- -- 90
2019-05-09 08:00:00 5.5 0 Calma 5 Norte 0 -- -- 94
2019-05-09 07:00:00 5 0 Calma 4 Nordeste 0 -- -- 92
2019-05-09 06:00:00 5.9 0 Calma 4 Norte 0 -- -- 90
2019-05-09 05:00:00 6.7 0 Calma 4 Nordeste 0 -- -- 88
2019-05-09 04:00:00 7.2 3 Norte 10 Sudoeste 0 -- -- 86
2019-05-09 03:00:00 8.4 7 Sudoeste 12 Sudoeste 0 -- -- 80
2019-05-09 02:00:00 9.1 5 Oeste 10 Sudoeste 0 -- -- 77
2019-05-09 01:00:00 9.9 5 Sudoeste 11 Sudoeste 0 -- -- 75
2019-05-09 00:00:00 11.2 5 Sudoeste 11 Sudoeste 0 -- -- 68
2019-05-08 23:00:00 13.5 4 Oeste 13 Noroeste 0 -- -- 59
2019-05-08 22:00:00 15.2 5 Noroeste 21 Noroeste 0 -- -- 47
2019-05-08 21:00:00 16.7 12 Noroeste 27 Norte 0 -- -- 42
2019-05-08 20:00:00 18.5 12 Oeste 34 Sudoeste 0 -- -- 35
2019-05-08 19:00:00 20.1 14 Sudoeste 44 Sudoeste 0 -- -- 33
2019-05-08 18:00:00 21.4 15 Oeste 41 Oeste 0 -- -- 30
2019-05-08 17:00:00 20.6 12 Sudoeste 37 Oeste 0 -- -- 38
2019-05-08 16:00:00 19.9 17 Oeste 35 Oeste 0 -- -- 39
2019-05-08 15:00:00 19.6 14 Sudoeste 28 Sudoeste 0 -- -- 54
2019-05-08 14:00:00 19.2 13 Sudoeste 35 Sudoeste 0 -- -- 57
2019-05-08 13:00:00 18.1 19 Sudoeste 37 Sudoeste 0 -- -- 60
2019-05-08 12:00:00 16.3 8 Sudoeste 21 Sudoeste 0 -- -- 76
2019-05-08 11:00:00 15 9 Sudoeste 21 Sur 0 -- -- 80
2019-05-08 10:00:00 14.7 5 Sudoeste 37 Oeste 0 -- -- 82
2019-05-08 09:00:00 14 5 Sudoeste 15 Sudoeste 0.6 -- -- 89
2019-05-08 08:00:00 14.1 3 Nordeste 18 Oeste 0 -- -- 89
2019-05-08 07:00:00 14.5 9 Sudoeste 27 Sudoeste 0.2 -- -- 83
2019-05-08 06:00:00 14.7 16 Sudoeste 41 Sudoeste 0.2 -- -- 80
2019-05-08 05:00:00 13.9 0 Calma 12 Norte 0.2 -- -- 94
2019-05-08 04:00:00 14.6 4 Noroeste 26 Oeste 0.6 -- -- 88
2019-05-08 03:00:00 14.8 6 Sudoeste 34 Oeste 0.6 -- -- 87
2019-05-08 02:00:00 14.6 5 Norte 21 Sudoeste 0.8 -- -- 90
2019-05-08 01:00:00 15.4 3 Sur 26 Sudoeste 0 -- -- 83
2019-05-08 00:00:00 14.7 4 Noroeste 10 Nordeste 0 -- -- 86
2019-05-07 23:00:00 14.8 3 Norte 8 Este 0 -- -- 85
2019-05-07 22:00:00 15.7 0 Calma 14 Este 0 -- -- 85
2019-05-07 21:00:00 17 6 Sudeste 18 Nordeste 0 -- -- 78
2019-05-07 20:00:00 17.2 5 Sur 20 Este 0 -- -- 78
2019-05-07 19:00:00 16.6 4 Este 13 Este 0 -- -- 86
2019-05-07 18:00:00 16.6 7 Este 17 Este 0 -- -- 79
2019-05-07 17:00:00 16.8 2 Este 21 Sudoeste 0 -- -- 76
2019-05-07 16:00:00 18.4 13 Oeste 27 Oeste 0 -- -- 65
2019-05-07 15:00:00 18.7 18 Este 33 Este 0 -- -- 63
2019-05-07 14:00:00 18.3 9 Sur 24 Sudoeste 0 -- -- 62
2019-05-07 13:00:00 18.1 7 Nordeste 26 Este 0 -- -- 65
2019-05-07 12:00:00 16.9 13 Este 20 Este 0 -- -- 66
2019-05-07 11:00:00 15.4 9 Este 15 Este 0 -- -- 71
2019-05-07 10:00:00 13.3 4 Este 8 Este 0 -- -- 80
2019-05-07 09:00:00 9.2 0 Calma 3 Este 0 -- -- 94
2019-05-07 08:00:00 7 0 Calma 3 Sudeste 0 -- -- 94
2019-05-07 07:00:00 7 0 Calma 4 Norte 0 -- -- 93
2019-05-07 06:00:00 7.2 0 Calma 4 Sudeste 0 -- -- 92
2019-05-07 05:00:00 7.7 2 Norte 4 Norte 0 -- -- 91
2019-05-07 04:00:00 8.2 0 Calma 5 Norte 0 -- -- 90
2019-05-07 03:00:00 8.8 2 Noroeste 4 Norte 0 -- -- 88
2019-05-07 02:00:00 9.6 3 Norte 4 Norte 0 -- -- 84
2019-05-07 01:00:00 10.2 2 Nordeste 4 Norte 0 -- -- 81
2019-05-07 00:00:00 11.8 0 Calma 6 Norte 0 -- -- 75
2019-05-06 23:00:00 13.6 0 Calma 5 Oeste 0 -- -- 68
2019-05-06 22:00:00 16.2 3 Norte 8 Nordeste 0 -- -- 60
2019-05-06 21:00:00 20 7 Oeste 17 Oeste 0 -- -- 44
2019-05-06 20:00:00 22.2 8 Sudoeste 21 Oeste 0 -- -- 38
2019-05-06 19:00:00 22 10 Sudoeste 26 Oeste 0 -- -- 40
2019-05-06 18:00:00 23.7 6 Sur 24 Sur 0 -- -- 32
2019-05-06 17:00:00 23.2 8 Sur 26 Sudoeste 0 -- -- 32
2019-05-06 16:00:00 23.3 12 Sudeste 23 Oeste 0 -- -- 31
2019-05-06 15:00:00 22.4 8 Sur 27 Oeste 0 -- -- 35
2019-05-06 14:00:00 21.7 4 Sudoeste 25 Sudoeste 0 -- -- 49
2019-05-06 13:00:00 20.8 11 Sur 26 Este 0 -- -- 45
2019-05-06 12:00:00 19.2 17 Este 25 Este 0 -- -- 52
2019-05-06 11:00:00 17.5 8 Este 13 Este 0 -- -- 57
2019-05-06 10:00:00 14 0 Calma 4 Sudeste 0 -- -- 68
2019-05-06 09:00:00 9 0 Calma 5 Este 0 -- -- 93
2019-05-06 08:00:00 6.2 0 Calma 3 Noroeste 0 -- -- 92
2019-05-06 07:00:00 6.5 0 Calma 3 Norte 0 -- -- 91
2019-05-06 06:00:00 6.7 0 Calma 3 Este 0 -- -- 89
2019-05-06 05:00:00 7.4 0 Calma 4 Noroeste 0 -- -- 87
2019-05-06 04:00:00 8 3 Norte 7 Norte 0 -- -- 83
2019-05-06 03:00:00 9.1 3 Noroeste 7 Norte 0 -- -- 77
2019-05-06 02:00:00 9.5 3 Norte 5 Norte 0 -- -- 75
2019-05-06 01:00:00 10.7 4 Norte 8 Noroeste 0 -- -- 69
2019-05-06 00:00:00 12.2 5 Norte 8 Sudoeste 0 -- -- 65
2019-05-05 23:00:00 14.3 4 Noroeste 6 Oeste 0 -- -- 58
2019-05-05 22:00:00 17.3 0 Calma 11 Oeste 0 -- -- 50
2019-05-05 21:00:00 21.4 9 Oeste 19 Oeste 0 -- -- 40
2019-05-05 20:00:00 23.2 9 Oeste 26 Oeste 0 -- -- 33
2019-05-05 19:00:00 24.3 14 Oeste 32 Oeste 0 -- -- 28
2019-05-05 18:00:00 24.9 17 Oeste 27 Sudoeste 0 -- -- 27
2019-05-05 17:00:00 24.8 15 Oeste 32 Sudoeste 0 -- -- 28
2019-05-05 16:00:00 24.7 12 Oeste 33 Oeste 0 -- -- 29
2019-05-05 15:00:00 24.1 8 Oeste 22 Oeste 0 -- -- 33
2019-05-05 14:00:00 22.4 8 Este 16 Este 0 -- -- 43
2019-05-05 13:00:00 20.9 8 Este 17 Este 0 -- -- 45
2019-05-05 12:00:00 18.7 6 Este 13 Este 0 -- -- 49
2019-05-05 11:00:00 16.2 3 Este 9 Este 0 -- -- 55
2019-05-05 10:00:00 13.5 6 Sudeste 13 Este 0 -- -- 60
2019-05-05 09:00:00 8.3 3 Norte 6 Norte 0 -- -- 89
2019-05-05 08:00:00 6.2 2 Norte 5 Norte 0 -- -- 91
2019-05-05 07:00:00 6.8 3 Norte 5 Norte 0 -- -- 90
2019-05-05 06:00:00 7.1 0 Calma 4 Nordeste 0 -- -- 89
2019-05-05 05:00:00 7.7 0 Calma 12 Este 0 -- -- 87
2019-05-05 04:00:00 7.9 3 Sudeste 8 Sudeste 0 -- -- 86
2019-05-05 03:00:00 8.7 0 Calma 7 Norte 0 -- -- 80
2019-05-05 02:00:00 9.7 2 Sudeste 9 Norte 0 -- -- 77
2019-05-05 01:00:00 10.7 4 Norte 8 Noroeste 0 -- -- 71
2019-05-05 00:00:00 12 3 Noroeste 11 Oeste 0 -- -- 66
2019-05-04 23:00:00 13.4 5 Noroeste 9 Noroeste 0 -- -- 62
2019-05-04 22:00:00 15.6 3 Noroeste 8 Oeste 0 -- -- 54
2019-05-04 21:00:00 19.9 3 Oeste 9 Noroeste 0 -- -- 44
2019-05-04 20:00:00 24.2 7 Noroeste 26 Sudoeste 0 -- -- 29
2019-05-04 19:00:00 24.9 8 Noroeste 28 Oeste 0 -- -- 26
2019-05-04 18:00:00 24.9 12 Oeste 28 Sudoeste 0 -- -- 28
2019-05-04 17:00:00 24.6 17 Oeste 38 Sudoeste 0 -- -- 25
2019-05-04 16:00:00 23.8 15 Oeste 35 Oeste 0 -- -- 26
2019-05-04 15:00:00 23.2 14 Oeste 27 Sudoeste 0 -- -- 32
2019-05-04 14:00:00 22.5 12 Oeste 29 Oeste 0 -- -- 33
2019-05-04 13:00:00 21.2 10 Este 19 Este 0 -- -- 35
2019-05-04 12:00:00 19 9 Este 15 Este 0 -- -- 38
2019-05-04 11:00:00 16.2 2 Sudeste 5 Sudeste 0 -- -- 48
2019-05-04 10:00:00 12 0 Calma 4 Norte 0 -- -- 58
2019-05-04 09:00:00 6 2 Norte 4 Norte 0 -- -- 89
2019-05-04 08:00:00 3.2 0 Calma 4 Norte 0 -- -- 91
2019-05-04 07:00:00 3.4 0 Calma 4 Norte 0 -- -- 89
2019-05-04 06:00:00 4.1 0 Calma 5 Norte 0 -- -- 87
2019-05-04 05:00:00 4.9 2 Norte 4 Norte 0 -- -- 85
2019-05-04 04:00:00 6 2 Norte 5 Norte 0 -- -- 81
2019-05-04 03:00:00 7.3 4 Norte 9 Norte 0 -- -- 75
2019-05-04 02:00:00 8.6 4 Noroeste 13 Oeste 0 -- -- 72
2019-05-04 01:00:00 9.2 2 Noroeste 9 Oeste 0 -- -- 71
2019-05-04 00:00:00 10.5 3 Noroeste 8 Sudoeste 0 -- -- 66
2019-05-03 23:00:00 12.3 2 Noroeste 8 Norte 0 -- -- 59
2019-05-03 22:00:00 14.5 0 Calma 8 Sudeste 0 -- -- 54
2019-05-03 21:00:00 18.7 4 Nordeste 20 Nordeste 0 -- -- 39
2019-05-03 20:00:00 20.9 10 Este 22 Este 0 -- -- 33
2019-05-03 19:00:00 21.9 8 Nordeste 25 Nordeste 0 -- -- 31
2019-05-03 18:00:00 22.4 12 Este 26 Norte 0 -- -- 30
2019-05-03 17:00:00 22.7 12 Nordeste 24 Norte 0 -- -- 28
2019-05-03 16:00:00 22.7 10 Norte 33 Sudeste 0 -- -- 31
2019-05-03 15:00:00 22.3 10 Este 24 Este 0 -- -- 36
2019-05-03 14:00:00 21.8 9 Norte 26 Norte 0 -- -- 34
2019-05-03 13:00:00 21.6 6 Este 24 Sudeste 0 -- -- 37
2019-05-03 12:00:00 19.8 4 Nordeste 13 Sudeste 0 -- -- 45
2019-05-03 11:00:00 17.6 3 Nordeste 9 Este 0 -- -- 54
2019-05-03 10:00:00 13.6 0 Calma 6 Sudeste 0 -- -- 63
2019-05-03 09:00:00 8.3 0 Calma 5 Norte 0 -- -- 91
2019-05-03 08:00:00 5.9 2 Norte 5 Norte 0 -- -- 92
2019-05-03 07:00:00 6.6 3 Norte 6 Norte 0 -- -- 90
2019-05-03 06:00:00 7.1 3 Norte 6 Norte 0 -- -- 89
2019-05-03 05:00:00 7.8 0 Calma 8 Oeste 0 -- -- 87
2019-05-03 04:00:00 9.3 4 Noroeste 8 Norte 0 -- -- 83
2019-05-03 03:00:00 10 4 Noroeste 9 Norte 0 -- -- 80
2019-05-03 02:00:00 11.2 3 Noroeste 12 Norte 0 -- -- 77
2019-05-03 01:00:00 11.7 4 Noroeste 10 Noroeste 0 -- -- 76
2019-05-03 00:00:00 12.6 3 Sur 9 Norte 0 -- -- 77
2019-05-02 23:00:00 14.7 5 Noroeste 8 Norte 0 -- -- 67
2019-05-02 22:00:00 17 4 Noroeste 9 Noroeste 0 -- -- 60
2019-05-02 21:00:00 20.8 3 Norte 11 Noroeste 0 -- -- 49
2019-05-02 20:00:00 24.9 8 Oeste 20 Noroeste 0 -- -- 37
2019-05-02 19:00:00 26 10 Oeste 19 Oeste 0 -- -- 34
2019-05-02 18:00:00 25.9 4 Este 17 Noroeste 0 -- -- 37
2019-05-02 17:00:00 25.3 6 Este 27 Este 0 -- -- 39
2019-05-02 16:00:00 25.7 4 Sudeste 18 Este 0 -- -- 39
2019-05-02 15:00:00 25.3 6 Sudeste 19 Sudeste 0 -- -- 40
2019-05-02 14:00:00 24.4 12 Este 19 Este 0 -- -- 46
2019-05-02 13:00:00 22.9 5 Sur 13 Sudoeste 0 -- -- 47
2019-05-02 12:00:00 20 3 Sudeste 9 Nordeste 0 -- -- 54
2019-05-02 11:00:00 17.3 4 Este 11 Este 0 -- -- 63
2019-05-02 10:00:00 14.8 2 Este 6 Este 0 -- -- 71
2019-05-02 09:00:00 10.3 0 Calma 4 Norte 0 -- -- 93
2019-05-02 08:00:00 8.2 0 Calma 4 Noroeste 0 -- -- 92
2019-05-02 07:00:00 8.8 3 Noroeste 5 Noroeste 0 -- -- 91
2019-05-02 06:00:00 9.3 2 Noroeste 5 Norte 0 -- -- 90
2019-05-02 05:00:00 9.7 2 Norte 6 Norte 0 -- -- 89
2019-05-02 04:00:00 9.8 3 Norte 5 Norte 0 -- -- 89
2019-05-02 03:00:00 10.4 0 Calma 9 Este 0 -- -- 85
2019-05-02 02:00:00 11.5 0 Calma 13 Este 0 -- -- 80
2019-05-02 01:00:00 12.8 5 Norte 10 Norte 0 -- -- 73
2019-05-02 00:00:00 13.8 6 Noroeste 10 Noroeste 0 -- -- 70
2019-05-01 23:00:00 15.6 4 Noroeste 12 Oeste 0 -- -- 64
2019-05-01 22:00:00 18.2 3 Noroeste 6 Sudoeste 0 -- -- 60
2019-05-01 21:00:00 22.2 3 Este 12 Sur 0 -- -- 48
2019-05-01 20:00:00 25.4 8 Este 18 Este 0 -- -- 37
2019-05-01 19:00:00 27 10 Oeste 23 Sudoeste 0 -- -- 31
2019-05-01 18:00:00 27.3 8 Oeste 23 Sudoeste 0 -- -- 33
2019-05-01 17:00:00 26.1 7 Sudoeste 21 Sudoeste 0 -- -- 36
2019-05-01 16:00:00 24.8 5 Sur 11 Sur 0 -- -- 39
2019-05-01 15:00:00 25.3 6 Sudoeste 16 Oeste 0 -- -- 36
2019-05-01 14:00:00 24.7 11 Noroeste 20 Sudoeste 0 -- -- 37
2019-05-01 13:00:00 25.5 3 Norte 9 Sudeste 0 -- -- 37
2019-05-01 12:00:00 23 7 Este 12 Este 0 -- -- 43
2019-05-01 11:00:00 20.7 5 Este 9 Nordeste 0 -- -- 49
2019-05-01 10:00:00 16.7 0 Calma 3 Norte 0 -- -- 64
2019-05-01 09:00:00 11.7 0 Calma 4 Norte 0 -- -- 84
2019-05-01 08:00:00 9.7 0 Calma 4 Norte 0 -- -- 87
2019-05-01 07:00:00 9.7 0 Calma 7 Norte 0 -- -- 84
2019-05-01 06:00:00 10.7 4 Norte 8 Noroeste 0 -- -- 79
2019-05-01 05:00:00 11.6 4 Norte 10 Noroeste 0 -- -- 74
2019-05-01 04:00:00 12.5 4 Norte 10 Noroeste 0 -- -- 71
2019-05-01 03:00:00 12.9 4 Norte 10 Norte 0 -- -- 73
2019-05-01 02:00:00 13.1 5 Norte 9 Noroeste 0 -- -- 73
2019-05-01 01:00:00 13.6 4 Norte 11 Noroeste 0 -- -- 72
2019-05-01 00:00:00 14.8 5 Noroeste 13 Noroeste 0 -- -- 69
2019-04-30 23:00:00 16 5 Norte 8 Norte 0 -- -- 64
2019-04-30 22:00:00 18.7 4 Noroeste 10 Noroeste 0 -- -- 55
2019-04-30 21:00:00 22.8 6 Oeste 13 Oeste 0 -- -- 43
2019-04-30 20:00:00 26.6 8 Oeste 19 Oeste 0 -- -- 32
2019-04-30 19:00:00 27.7 9 Noroeste 26 Noroeste 0 -- -- 28
2019-04-30 18:00:00 27.5 11 Oeste 23 Oeste 0 -- -- 31
2019-04-30 17:00:00 27.3 14 Sudoeste 22 Sudoeste 0 -- -- 30
2019-04-30 16:00:00 26.7 10 Sudoeste 22 Oeste 0 -- -- 34
2019-04-30 15:00:00 27.3 8 Noroeste 17 Este 0 -- -- 34
2019-04-30 14:00:00 25.8 6 Este 15 Oeste 0 -- -- 35
2019-04-30 13:00:00 25.5 5 Sudeste 16 Este 0 -- -- 36
2019-04-30 12:00:00 23.4 9 Este 15 Este 0 -- -- 44
2019-04-30 11:00:00 20.7 4 Este 9 Este 0 -- -- 56
2019-04-30 10:00:00 16.6 0 Calma 3 Nordeste 0 -- -- 70
2019-04-30 09:00:00 11.2 0 Calma 4 Norte 0 -- -- 92
2019-04-30 08:00:00 9.2 2 Noroeste 5 Norte 0 -- -- 91
2019-04-30 07:00:00 10.4 4 Norte 7 Norte 0 -- -- 87
2019-04-30 06:00:00 12.2 4 Noroeste 14 Oeste 0 -- -- 81
2019-04-30 05:00:00 13.1 7 Noroeste 17 Sudoeste 0 -- -- 78
2019-04-30 04:00:00 13.7 7 Noroeste 17 Noroeste 0 -- -- 78
2019-04-30 03:00:00 12.8 7 Noroeste 15 Noroeste 0 -- -- 80
2019-04-30 02:00:00 12.3 4 Noroeste 10 Norte 0 -- -- 76
2019-04-30 01:00:00 12.1 4 Norte 11 Oeste 0 -- -- 74
2019-04-30 00:00:00 13.5 5 Noroeste 9 Oeste 0 -- -- 71
2019-04-29 23:00:00 15 5 Noroeste 8 Noroeste 0 -- -- 64
2019-04-29 22:00:00 17.7 5 Noroeste 12 Sudoeste 0 -- -- 57
2019-04-29 21:00:00 21.9 7 Oeste 18 Noroeste 0 -- -- 42
2019-04-29 20:00:00 26.1 6 Noroeste 21 Sudoeste 0 -- -- 33
2019-04-29 19:00:00 26.8 8 Noroeste 31 Oeste 0 -- -- 30
2019-04-29 18:00:00 26.3 10 Oeste 22 Oeste 0 -- -- 39
2019-04-29 17:00:00 26.5 12 Oeste 27 Oeste 0 -- -- 38
2019-04-29 16:00:00 26.8 6 Sudoeste 23 Oeste 0 -- -- 38
2019-04-29 15:00:00 25.4 15 Este 28 Este 0 -- -- 42
2019-04-29 14:00:00 26.1 7 Sudeste 24 Sudeste 0 -- -- 38
2019-04-29 13:00:00 24.7 6 Este 14 Sudeste 0 -- -- 41
2019-04-29 12:00:00 22.1 3 Este 8 Este 0 -- -- 46
2019-04-29 11:00:00 19 2 Nordeste 5 Este 0 -- -- 53
2019-04-29 10:00:00 14.8 0 Calma 4 Norte 0 -- -- 72
2019-04-29 09:00:00 8.8 2 Norte 4 Noroeste 0 -- -- 96
2019-04-29 08:00:00 6.6 0 Calma 4 Norte 0 -- -- 93
2019-04-29 07:00:00 6.9 0 Calma 5 Norte 0 -- -- 92
2019-04-29 06:00:00 7.3 0 Calma 4 Este 0 -- -- 92
2019-04-29 05:00:00 7.9 2 Nordeste 6 Norte 0 -- -- 89
2019-04-29 04:00:00 8.6 4 Norte 7 Norte 0 -- -- 87
2019-04-29 03:00:00 9.3 4 Norte 8 Norte 0 -- -- 84
2019-04-29 02:00:00 10.1 4 Noroeste 9 Noroeste 0 -- -- 80
2019-04-29 01:00:00 11 4 Norte 8 Nordeste 0 -- -- 78
2019-04-29 00:00:00 12.3 4 Noroeste 9 Noroeste 0 -- -- 74
2019-04-28 23:00:00 14.5 5 Noroeste 10 Noroeste 0 -- -- 67
2019-04-28 22:00:00 16.8 4 Norte 6 Norte 0 -- -- 62
2019-04-28 21:00:00 20.9 2 Norte 14 Oeste 0 -- -- 52
2019-04-28 20:00:00 24.7 8 Oeste 18 Oeste 0 -- -- 34
2019-04-28 19:00:00 24.8 9 Sudoeste 16 Sudoeste 0 -- -- 36
2019-04-28 18:00:00 25 3 Sudoeste 7 Sur 0 -- -- 40
2019-04-28 17:00:00 25.1 3 Noroeste 17 Este 0 -- -- 35
2019-04-28 16:00:00 26.1 7 Sur 24 Sudeste 0 -- -- 34
2019-04-28 15:00:00 24.8 10 Este 19 Este 0 -- -- 36
2019-04-28 14:00:00 23.9 13 Este 21 Este 0 -- -- 37
2019-04-28 13:00:00 22.6 7 Este 15 Este 0 -- -- 42
2019-04-28 12:00:00 20.5 9 Este 13 Este 0 -- -- 49
2019-04-28 11:00:00 16.8 0 Calma 4 Este 0 -- -- 58
2019-04-28 10:00:00 12.8 0 Calma 3 Nordeste 0 -- -- 76
2019-04-28 09:00:00 7.4 0 Calma 4 Norte 0 -- -- 98
2019-04-28 08:00:00 5.6 3 Norte 5 Norte 0 -- -- 95
2019-04-28 07:00:00 6 2 Norte 5 Noroeste 0 -- -- 95
2019-04-28 06:00:00 6.7 2 Noroeste 5 Noroeste 0 -- -- 93
2019-04-28 05:00:00 7 3 Norte 6 Norte 0 -- -- 93
2019-04-28 04:00:00 7.8 3 Norte 6 Norte 0 -- -- 92
2019-04-28 03:00:00 8.3 3 Norte 6 Norte 0 -- -- 90
2019-04-28 02:00:00 9 3 Norte 5 Norte 0 -- -- 88
2019-04-28 01:00:00 10.4 3 Norte 7 Norte 0 -- -- 85
2019-04-28 00:00:00 11.5 4 Norte 7 Norte 0 -- -- 81
2019-04-27 23:00:00 13 4 Norte 6 Norte 0 -- -- 75
2019-04-27 22:00:00 15.4 4 Norte 8 Norte 0 -- -- 66
2019-04-27 21:00:00 19.2 3 Norte 18 Oeste 0 -- -- 56
2019-04-27 20:00:00 22.9 9 Noroeste 17 Oeste 0 -- -- 43
2019-04-27 19:00:00 23.2 2 Sur 17 Este 0 -- -- 45
2019-04-27 18:00:00 23.2 11 Sudeste 25 Este 0 -- -- 45
2019-04-27 17:00:00 23.2 10 Sur 26 Este 0 -- -- 43
2019-04-27 16:00:00 22.5 12 Sudeste 23 Este 0 -- -- 42
2019-04-27 15:00:00 21.7 7 Este 20 Este 0 -- -- 45
2019-04-27 14:00:00 20.5 4 Sur 18 Este 0 -- -- 45
2019-04-27 13:00:00 19.2 5 Sudeste 16 Este 0 -- -- 49
2019-04-27 12:00:00 17 8 Este 15 Este 0 -- -- 53
2019-04-27 11:00:00 15.2 5 Este 9 Este 0 -- -- 64
2019-04-27 10:00:00 10.8 0 Calma 4 Norte 0 -- -- 76
2019-04-27 09:00:00 6.1 2 Nordeste 4 Nordeste 0 -- -- 97
2019-04-27 08:00:00 4 0 Calma 4 Norte 0 -- -- 94
2019-04-27 07:00:00 4.6 0 Calma 8 Norte 0 -- -- 93
2019-04-27 06:00:00 5.1 5 Norte 9 Norte 0 -- -- 92
2019-04-27 05:00:00 5.2 6 Norte 13 Norte 0 -- -- 91
2019-04-27 04:00:00 5.9 7 Norte 10 Nordeste 0 -- -- 89
2019-04-27 03:00:00 6.7 5 Norte 14 Noroeste 0 -- -- 86
2019-04-27 02:00:00 7.3 5 Noroeste 12 Oeste 0 -- -- 83
2019-04-27 01:00:00 7.2 3 Noroeste 14 Oeste 0 -- -- 84
2019-04-27 00:00:00 8.3 5 Oeste 13 Oeste 0 -- -- 79
2019-04-26 23:00:00 9 5 Noroeste 12 Noroeste 0 -- -- 77
2019-04-26 22:00:00 10.5 3 Norte 10 Oeste 0 -- -- 72
2019-04-26 21:00:00 13.4 5 Oeste 19 Sudoeste 0 -- -- 61
2019-04-26 20:00:00 16.4 10 Oeste 26 Oeste 0 -- -- 45
2019-04-26 19:00:00 16.7 14 Oeste 25 Sudoeste 0 -- -- 43
2019-04-26 18:00:00 16.9 14 Oeste 28 Sudoeste 0 -- -- 42
2019-04-26 17:00:00 16.5 15 Oeste 32 Oeste 0 -- -- 43
2019-04-26 16:00:00 16.2 8 Norte 31 Oeste 0 -- -- 48
2019-04-26 15:00:00 15.4 16 Oeste 33 Oeste 0 -- -- 44
2019-04-26 14:00:00 14.6 11 Oeste 36 Oeste 0 -- -- 44
2019-04-26 13:00:00 13.1 10 Oeste 36 Sudoeste 0 -- -- 52
2019-04-26 12:00:00 12.1 14 Oeste 24 Oeste 0 -- -- 57
2019-04-26 11:00:00 11 9 Oeste 18 Sudoeste 0 -- -- 65
2019-04-26 10:00:00 10.2 6 Oeste 17 Noroeste 0 -- -- 74
2019-04-26 09:00:00 8.3 6 Norte 14 Norte 0 -- -- 83
2019-04-26 08:00:00 5.5 5 Oeste 11 Oeste 0 -- -- 90
2019-04-26 07:00:00 6.4 6 Oeste 10 Oeste 0 -- -- 87
2019-04-26 06:00:00 7.9 4 Noroeste 12 Oeste 0 -- -- 84
2019-04-26 05:00:00 8.6 4 Noroeste 11 Oeste 0 -- -- 81
2019-04-26 04:00:00 8 0 Calma 8 Este 0 -- -- 89
2019-04-26 03:00:00 8.5 3 Este 11 Sudeste 0 -- -- 85
2019-04-26 02:00:00 8.8 4 Este 14 Este 0 -- -- 83
2019-04-26 01:00:00 8.6 3 Nordeste 5 Nordeste 0 -- -- 85
2019-04-26 00:00:00 8.6 0 Calma 5 Nordeste 0 -- -- 85
2019-04-25 23:00:00 8.6 0 Calma 6 Nordeste 0 -- -- 84
2019-04-25 22:00:00 9 3 Oeste 5 Oeste 0 -- -- 80
2019-04-25 21:00:00 10.3 2 Noroeste 37 Sudoeste 0.2 -- -- 71
2019-04-25 20:00:00 12 12 Oeste 30 Oeste 0 -- -- 59
2019-04-25 19:00:00 14.1 11 Noroeste 33 Sudoeste 0 -- -- 52
2019-04-25 18:00:00 14 14 Sudoeste 41 Oeste 0 -- -- 52
2019-04-25 17:00:00 13.6 15 Sudoeste 35 Sudoeste 0 -- -- 48
2019-04-25 16:00:00 12.7 16 Sudoeste 33 Sudoeste 0.2 -- -- 63
2019-04-25 15:00:00 12.1 10 Sudoeste 29 Sudoeste 0.2 -- -- 66
2019-04-25 14:00:00 10.5 8 Sudoeste 24 Sudoeste 0.4 -- -- 69
2019-04-25 13:00:00 11.6 8 Sudoeste 30 Oeste 0 -- -- 61
2019-04-25 12:00:00 10.7 13 Sudoeste 23 Sudoeste 0 -- -- 63
2019-04-25 11:00:00 8.4 3 Noroeste 17 Noroeste 0.2 -- -- 86
2019-04-25 10:00:00 7.6 3 Oeste 8 Sudeste 0 -- -- 93
2019-04-25 09:00:00 6.8 0 Calma 7 Norte 0 -- -- 97
2019-04-25 08:00:00 6.4 2 Norte 5 Nordeste 0.4 -- -- 97
2019-04-25 07:00:00 6.4 0 Calma 4 Este 0 -- -- 97
2019-04-25 06:00:00 6.4 2 Sudeste 14 Sudoeste 0.8 -- -- 96
2019-04-25 05:00:00 7.1 3 Noroeste 8 Noroeste 0.6 -- -- 97
2019-04-25 04:00:00 7.3 0 Calma 6 Nordeste 1.6 -- -- 96
2019-04-25 03:00:00 7.2 0 Calma 6 Noroeste 0.2 -- -- 96
2019-04-25 02:00:00 7.1 2 Noroeste 6 Sudeste 0 -- -- 95
2019-04-25 01:00:00 7.6 3 Sudeste 15 Oeste 0 -- -- 91
2019-04-25 00:00:00 9.1 6 Noroeste 27 Oeste 0.2 -- -- 85
2019-04-24 23:00:00 9.7 4 Norte 12 Oeste 1.8 -- -- 95
2019-04-24 22:00:00 9.9 3 Nordeste 11 Nordeste 7.8 -- -- 94
2019-04-24 21:00:00 10.6 3 Sudeste 28 Sudoeste 0.6 -- -- 89
2019-04-24 20:00:00 11.6 9 Sur 27 Sudoeste 0 -- -- 75
2019-04-24 19:00:00 11.2 5 Norte 17 Sudoeste 1.2 -- -- 91
2019-04-24 18:00:00 12.6 8 Sur 28 Sur 0 -- -- 73
2019-04-24 17:00:00 13.1 17 Sudoeste 41 Oeste 0.2 -- -- 68
2019-04-24 16:00:00 12.6 11 Sudoeste 29 Sudoeste 2.8 -- -- 84
2019-04-24 15:00:00 12.6 5 Sur 40 Sudeste 0.2 -- -- 87
2019-04-24 14:00:00 11.9 12 Sur 33 Sur 2.8 -- -- 84
2019-04-24 13:00:00 11.2 15 Sur 40 Sudeste 3 -- -- 89
2019-04-24 12:00:00 9.3 7 Nordeste 14 Nordeste 2.4 -- -- 96
2019-04-24 11:00:00 7.9 2 Este 7 Norte 1.2 -- -- 96
2019-04-24 10:00:00 7.6 3 Nordeste 13 Sudoeste 3.6 -- -- 94
2019-04-24 09:00:00 7.1 7 Oeste 18 Oeste 8.6 -- -- 92
2019-04-24 08:00:00 6.3 3 Nordeste 24 Este 6.2 -- -- 93
2019-04-24 07:00:00 5.1 3 Sudeste 21 Sudoeste 5.2 -- -- 93
2019-04-24 06:00:00 5.8 9 Sudoeste 31 Sudeste 3.2 -- -- 86
2019-04-24 05:00:00 5.6 6 Sudeste 22 Sudoeste 1 -- -- 93
2019-04-24 04:00:00 5.6 5 Este 21 Este 0.6 -- -- 92
2019-04-24 03:00:00 6.2 6 Este 21 Sudeste 0 -- -- 86
2019-04-24 02:00:00 5.7 0 Calma 4 Nordeste 0 -- -- 93
2019-04-24 01:00:00 5.7 0 Calma 5 Sudeste 0 -- -- 93
2019-04-24 00:00:00 6 0 Calma 6 Nordeste 0 -- -- 92
2019-04-23 23:00:00 6.6 0 Calma 6 Norte 0 -- -- 89
2019-04-23 22:00:00 7 3 Norte 6 Este 0 -- -- 87
2019-04-23 21:00:00 8.6 5 Este 18 Oeste 0 -- -- 80
2019-04-23 20:00:00 10.4 8 Noroeste 23 Oeste 0 -- -- 70
2019-04-23 19:00:00 8.5 13 Oeste 37 Sudoeste 0.4 -- -- 81
2019-04-23 18:00:00 9.9 4 Oeste 24 Este 0 -- -- 72
2019-04-23 17:00:00 9.5 12 Este 23 Este 0.2 -- -- 86
2019-04-23 16:00:00 9.2 13 Este 18 Este 0 -- -- 85
2019-04-23 15:00:00 8.4 5 Noroeste 33 Oeste 1.4 -- -- 85
2019-04-23 14:00:00 10.8 10 Sudoeste 32 Sudoeste 0.2 -- -- 67
2019-04-23 13:00:00 9.7 5 Sudeste 27 Este 0 -- -- 80
2019-04-23 12:00:00 8 5 Este 19 Este 0.4 -- -- 83
2019-04-23 11:00:00 8 4 Sur 25 Sudeste 0 -- -- 74
2019-04-23 10:00:00 8.1 3 Norte 8 Norte 0 -- -- 86
2019-04-23 09:00:00 5.8 0 Calma 7 Este 0 -- -- 94
2019-04-23 08:00:00 6.8 2 Norte 5 Sudeste 0 -- -- 93
2019-04-23 07:00:00 7.5 0 Calma 6 Norte 0 -- -- 94
2019-04-23 06:00:00 7.6 4 Nordeste 8 Norte 0 -- -- 94
2019-04-23 05:00:00 8.1 0 Calma 10 Norte 1.2 -- -- 92
2019-04-23 04:00:00 9.4 12 Noroeste 23 Oeste 2.6 -- -- 84
2019-04-23 03:00:00 10.9 4 Sur 24 Oeste 0.6 -- -- 82
2019-04-23 02:00:00 11.6 8 Sudoeste 23 Sudoeste 0.4 -- -- 80
2019-04-23 01:00:00 12.1 4 Sur 27 Oeste 0.4 -- -- 79
2019-04-23 00:00:00 13.4 3 Noroeste 17 Oeste 0 -- -- 66